Ashland, Oregon
Current Conditions -  °F | °C
As of 8:53 AM on Saturday 20 Dec 2014 (Local Time) from KMFR Reporting Station
Light Rain Light Rain  
Wind Chill: 44°   Ceiling: 100
Heat Index: 44°   Visibility: 3mi
Dew Point: 43°   Wind: 0mph
Humidity: 96%   Direction: NA
Pressure: 29.92"   Gusts: NA
Location:  42.2°N, 122.71°W
Report Text: KMFR 201653Z 00000KT 3SM -RA BR BKN001 OVC080 07/06 A2992 RMK AO2 RAB22 SLP135 P0000 T00670061
Loading
Personal Weather Stations






























Interactive Weather Map New forecast layout! Learn more

10-Day Weather Forecast

Advertisements
Track Severe Weather on mobile